sensor_id;sensor_type;location;lat;lon;timestamp;temperature;humidity
5621;DHT22;2832;50.864;12.186;2023-02-11T00:02:20;6.10;99.90
5621;DHT22;2832;50.864;12.186;2023-02-11T00:04:49;6.10;99.90
5621;DHT22;2832;50.864;12.186;2023-02-11T00:07:16;6.10;99.90
5621;DHT22;2832;50.864;12.186;2023-02-11T00:09:45;6.00;99.90
5621;DHT22;2832;50.864;12.186;2023-02-11T00:12:12;6.00;99.90
5621;DHT22;2832;50.864;12.186;2023-02-11T00:14:41;6.00;99.90
5621;DHT22;2832;50.864;12.186;2023-02-11T00:17:11;6.00;99.90
5621;DHT22;2832;50.864;12.186;2023-02-11T00:19:39;6.10;99.90
5621;DHT22;2832;50.864;12.186;2023-02-11T00:22:07;6.10;99.90
5621;DHT22;2832;50.864;12.186;2023-02-11T00:24:36;6.10;99.90
5621;DHT22;2832;50.864;12.186;2023-02-11T00:27:03;6.10;99.90
5621;DHT22;2832;50.864;12.186;2023-02-11T00:29:31;6.10;99.90
5621;DHT22;2832;50.864;12.186;2023-02-11T00:31:59;6.10;99.90
5621;DHT22;2832;50.864;12.186;2023-02-11T00:34:32;6.10;99.90
5621;DHT22;2832;50.864;12.186;2023-02-11T00:37:00;6.00;99.90
5621;DHT22;2832;50.864;12.186;2023-02-11T00:39:28;6.10;99.90
5621;DHT22;2832;50.864;12.186;2023-02-11T00:41:56;6.00;99.90
5621;DHT22;2832;50.864;12.186;2023-02-11T00:44:24;6.00;99.90
5621;DHT22;2832;50.864;12.186;2023-02-11T00:46:52;6.00;99.90
5621;DHT22;2832;50.864;12.186;2023-02-11T00:49:20;6.00;99.90
5621;DHT22;2832;50.864;12.186;2023-02-11T00:51:49;6.00;99.90
5621;DHT22;2832;50.864;12.186;2023-02-11T00:54:17;6.10;99.90
5621;DHT22;2832;50.864;12.186;2023-02-11T00:56:45;6.00;99.90
5621;DHT22;2832;50.864;12.186;2023-02-11T00:59:14;6.00;99.90
5621;DHT22;2832;50.864;12.186;2023-02-11T01:01:42;6.00;99.90
5621;DHT22;2832;50.864;12.186;2023-02-11T01:04:11;6.10;99.90
5621;DHT22;2832;50.864;12.186;2023-02-11T01:06:39;6.10;99.90
5621;DHT22;2832;50.864;12.186;2023-02-11T01:09:08;6.00;99.90
5621;DHT22;2832;50.864;12.186;2023-02-11T01:11:36;6.00;99.90
5621;DHT22;2832;50.864;12.186;2023-02-11T01:14:04;6.00;99.90
5621;DHT22;2832;50.864;12.186;2023-02-11T01:16:32;6.00;99.90
5621;DHT22;2832;50.864;12.186;2023-02-11T01:19:00;6.00;99.90
5621;DHT22;2832;50.864;12.186;2023-02-11T01:21:28;5.90;99.90
5621;DHT22;2832;50.864;12.186;2023-02-11T01:23:56;5.90;99.90
5621;DHT22;2832;50.864;12.186;2023-02-11T01:26:25;5.90;99.90
5621;DHT22;2832;50.864;12.186;2023-02-11T01:28:53;5.90;99.90
5621;DHT22;2832;50.864;12.186;2023-02-11T01:31:21;5.90;99.90
5621;DHT22;2832;50.864;12.186;2023-02-11T01:33:48;5.90;99.90
5621;DHT22;2832;50.864;12.186;2023-02-11T01:36:16;5.90;99.90
5621;DHT22;2832;50.864;12.186;2023-02-11T01:38:44;6.00;99.90
5621;DHT22;2832;50.864;12.186;2023-02-11T01:41:13;5.90;99.90
5621;DHT22;2832;50.864;12.186;2023-02-11T01:43:44;5.90;99.90
5621;DHT22;2832;50.864;12.186;2023-02-11T01:46:29;5.80;99.90
5621;DHT22;2832;50.864;12.186;2023-02-11T01:49:02;5.80;99.90
5621;DHT22;2832;50.864;12.186;2023-02-11T01:51:36;5.80;99.90
5621;DHT22;2832;50.864;12.186;2023-02-11T01:54:07;5.80;99.90
5621;DHT22;2832;50.864;12.186;2023-02-11T01:56:55;5.80;99.90
5621;DHT22;2832;50.864;12.186;2023-02-11T01:59:47;5.80;99.90
5621;DHT22;2832;50.864;12.186;2023-02-11T02:02:21;5.90;99.90
5621;DHT22;2832;50.864;12.186;2023-02-11T02:04:52;5.90;99.90
5621;DHT22;2832;50.864;12.186;2023-02-11T02:07:29;5.80;99.90
5621;DHT22;2832;50.864;12.186;2023-02-11T02:10:00;5.80;99.90
5621;DHT22;2832;50.864;12.186;2023-02-11T02:12:30;5.80;99.90
5621;DHT22;2832;50.864;12.186;2023-02-11T02:15:20;5.90;99.90
5621;DHT22;2832;50.864;12.186;2023-02-11T02:17:57;5.80;99.90
5621;DHT22;2832;50.864;12.186;2023-02-11T02:23:55;5.80;99.90
5621;DHT22;2832;50.864;12.186;2023-02-11T02:32:45;5.90;99.90
5621;DHT22;2832;50.864;12.186;2023-02-11T02:35:28;5.90;99.90
5621;DHT22;2832;50.864;12.186;2023-02-11T02:38:04;5.90;99.90
5621;DHT22;2832;50.864;12.186;2023-02-11T02:40:36;5.90;99.90
5621;DHT22;2832;50.864;12.186;2023-02-11T02:43:08;5.90;99.90
5621;DHT22;2832;50.864;12.186;2023-02-11T02:45:36;5.80;99.90
5621;DHT22;2832;50.864;12.186;2023-02-11T02:48:06;5.80;99.90
5621;DHT22;2832;50.864;12.186;2023-02-11T02:50:35;5.80;99.90
5621;DHT22;2832;50.864;12.186;2023-02-11T02:53:14;5.80;99.90
5621;DHT22;2832;50.864;12.186;2023-02-11T02:55:55;5.80;99.90
5621;DHT22;2832;50.864;12.186;2023-02-11T02:58:51;5.70;99.90
5621;DHT22;2832;50.864;12.186;2023-02-11T03:01:27;5.70;99.90
5621;DHT22;2832;50.864;12.186;2023-02-11T03:04:07;5.70;99.90
5621;DHT22;2832;50.864;12.186;2023-02-11T03:06:45;5.70;99.90
5621;DHT22;2832;50.864;12.186;2023-02-11T03:09:20;5.70;99.90
5621;DHT22;2832;50.864;12.186;2023-02-11T03:11:50;5.70;99.90
5621;DHT22;2832;50.864;12.186;2023-02-11T03:14:19;5.70;99.90
5621;DHT22;2832;50.864;12.186;2023-02-11T03:16:49;5.70;99.90
5621;DHT22;2832;50.864;12.186;2023-02-11T03:19:22;5.70;99.90
5621;DHT22;2832;50.864;12.186;2023-02-11T03:21:53;5.80;99.90
5621;DHT22;2832;50.864;12.186;2023-02-11T03:24:27;5.80;99.90
5621;DHT22;2832;50.864;12.186;2023-02-11T03:26:58;5.80;99.90
5621;DHT22;2832;50.864;12.186;2023-02-11T03:29:34;5.80;99.90
5621;DHT22;2832;50.864;12.186;2023-02-11T03:32:09;5.80;99.90
5621;DHT22;2832;50.864;12.186;2023-02-11T03:34:46;5.70;99.90
5621;DHT22;2832;50.864;12.186;2023-02-11T03:37:19;5.80;99.90
5621;DHT22;2832;50.864;12.186;2023-02-11T03:39:51;5.80;99.90
5621;DHT22;2832;50.864;12.186;2023-02-11T03:42:22;5.70;99.90
5621;DHT22;2832;50.864;12.186;2023-02-11T03:44:53;5.80;99.90
5621;DHT22;2832;50.864;12.186;2023-02-11T03:47:25;5.70;99.90
5621;DHT22;2832;50.864;12.186;2023-02-11T03:49:57;5.70;99.90
5621;DHT22;2832;50.864;12.186;2023-02-11T03:52:26;5.70;99.90
5621;DHT22;2832;50.864;12.186;2023-02-11T03:54:56;5.80;99.90
5621;DHT22;2832;50.864;12.186;2023-02-11T03:57:25;5.70;99.90
5621;DHT22;2832;50.864;12.186;2023-02-11T03:59:54;5.70;99.90
5621;DHT22;2832;50.864;12.186;2023-02-11T04:02:25;5.70;99.90
5621;DHT22;2832;50.864;12.186;2023-02-11T04:04:55;5.70;99.90
5621;DHT22;2832;50.864;12.186;2023-02-11T04:07:23;5.70;99.90
5621;DHT22;2832;50.864;12.186;2023-02-11T04:09:52;5.70;99.90
5621;DHT22;2832;50.864;12.186;2023-02-11T04:12:20;5.60;99.90
5621;DHT22;2832;50.864;12.186;2023-02-11T04:14:47;5.70;99.90
5621;DHT22;2832;50.864;12.186;2023-02-11T04:17:16;5.70;99.90
5621;DHT22;2832;50.864;12.186;2023-02-11T04:19:44;5.70;99.90
5621;DHT22;2832;50.864;12.186;2023-02-11T04:22:13;5.70;99.90
5621;DHT22;2832;50.864;12.186;2023-02-11T04:24:41;5.70;99.90
5621;DHT22;2832;50.864;12.186;2023-02-11T04:27:09;5.70;99.90
5621;DHT22;2832;50.864;12.186;2023-02-11T04:29:37;5.70;99.90
5621;DHT22;2832;50.864;12.186;2023-02-11T04:32:05;5.60;99.90
5621;DHT22;2832;50.864;12.186;2023-02-11T04:34:33;5.70;99.90
5621;DHT22;2832;50.864;12.186;2023-02-11T04:37:01;5.70;99.90
5621;DHT22;2832;50.864;12.186;2023-02-11T04:39:30;5.70;99.90
5621;DHT22;2832;50.864;12.186;2023-02-11T04:41:58;5.60;99.90
5621;DHT22;2832;50.864;12.186;2023-02-11T04:44:26;5.70;99.90
5621;DHT22;2832;50.864;12.186;2023-02-11T04:46:54;5.60;99.90
5621;DHT22;2832;50.864;12.186;2023-02-11T04:49:22;5.60;99.90
5621;DHT22;2832;50.864;12.186;2023-02-11T04:51:50;5.60;99.90
5621;DHT22;2832;50.864;12.186;2023-02-11T04:54:17;5.60;99.90
5621;DHT22;2832;50.864;12.186;2023-02-11T04:56:47;5.70;99.90
5621;DHT22;2832;50.864;12.186;2023-02-11T04:59:16;5.70;99.90
5621;DHT22;2832;50.864;12.186;2023-02-11T05:01:46;5.60;99.90
5621;DHT22;2832;50.864;12.186;2023-02-11T05:04:14;5.60;99.90
5621;DHT22;2832;50.864;12.186;2023-02-11T05:06:43;5.70;99.90
5621;DHT22;2832;50.864;12.186;2023-02-11T05:09:11;5.60;99.90
5621;DHT22;2832;50.864;12.186;2023-02-11T05:11:39;5.60;99.90
5621;DHT22;2832;50.864;12.186;2023-02-11T05:14:09;5.60;99.90
5621;DHT22;2832;50.864;12.186;2023-02-11T05:16:36;5.60;99.90
5621;DHT22;2832;50.864;12.186;2023-02-11T05:19:04;5.60;99.90
5621;DHT22;2832;50.864;12.186;2023-02-11T05:21:33;5.60;99.90
5621;DHT22;2832;50.864;12.186;2023-02-11T05:24:01;5.70;99.90
5621;DHT22;2832;50.864;12.186;2023-02-11T05:26:29;5.60;99.90
5621;DHT22;2832;50.864;12.186;2023-02-11T05:28:56;5.60;99.90
5621;DHT22;2832;50.864;12.186;2023-02-11T05:31:25;5.60;99.90
5621;DHT22;2832;50.864;12.186;2023-02-11T05:33:53;5.60;99.90
5621;DHT22;2832;50.864;12.186;2023-02-11T05:36:21;5.60;99.90
5621;DHT22;2832;50.864;12.186;2023-02-11T05:38:49;5.60;99.90
5621;DHT22;2832;50.864;12.186;2023-02-11T05:41:16;5.60;99.90
5621;DHT22;2832;50.864;12.186;2023-02-11T05:43:46;5.70;99.90
5621;DHT22;2832;50.864;12.186;2023-02-11T05:46:15;5.70;99.90
5621;DHT22;2832;50.864;12.186;2023-02-11T05:48:44;5.70;99.90
5621;DHT22;2832;50.864;12.186;2023-02-11T05:51:12;5.70;99.90
5621;DHT22;2832;50.864;12.186;2023-02-11T05:53:40;5.70;99.90
5621;DHT22;2832;50.864;12.186;2023-02-11T05:56:08;5.70;99.90
5621;DHT22;2832;50.864;12.186;2023-02-11T05:58:36;5.70;99.90
5621;DHT22;2832;50.864;12.186;2023-02-11T06:01:05;5.80;99.90
5621;DHT22;2832;50.864;12.186;2023-02-11T06:03:32;5.80;99.90
5621;DHT22;2832;50.864;12.186;2023-02-11T06:06:02;5.80;99.90
5621;DHT22;2832;50.864;12.186;2023-02-11T06:08:29;5.70;99.90
5621;DHT22;2832;50.864;12.186;2023-02-11T06:10:57;5.70;99.90
5621;DHT22;2832;50.864;12.186;2023-02-11T06:13:25;5.70;99.90
5621;DHT22;2832;50.864;12.186;2023-02-11T06:15:58;5.70;99.90
5621;DHT22;2832;50.864;12.186;2023-02-11T06:18:27;5.60;99.90
5621;DHT22;2832;50.864;12.186;2023-02-11T06:20:55;5.60;99.90
5621;DHT22;2832;50.864;12.186;2023-02-11T06:23:25;5.60;99.90
5621;DHT22;2832;50.864;12.186;2023-02-11T06:25:52;5.60;99.90
5621;DHT22;2832;50.864;12.186;2023-02-11T06:28:20;5.60;99.90
5621;DHT22;2832;50.864;12.186;2023-02-11T06:30:48;5.70;99.90
5621;DHT22;2832;50.864;12.186;2023-02-11T06:33:16;5.70;99.90
5621;DHT22;2832;50.864;12.186;2023-02-11T06:35:43;5.70;99.90
5621;DHT22;2832;50.864;12.186;2023-02-11T06:38:11;5.80;99.90
5621;DHT22;2832;50.864;12.186;2023-02-11T06:40:46;5.70;99.90
5621;DHT22;2832;50.864;12.186;2023-02-11T06:43:14;5.70;99.90
5621;DHT22;2832;50.864;12.186;2023-02-11T06:45:42;5.70;99.90
5621;DHT22;2832;50.864;12.186;2023-02-11T06:48:10;5.70;99.90
5621;DHT22;2832;50.864;12.186;2023-02-11T06:50:38;5.70;99.90
5621;DHT22;2832;50.864;12.186;2023-02-11T06:53:06;5.70;99.90
5621;DHT22;2832;50.864;12.186;2023-02-11T06:55:34;5.60;99.90
5621;DHT22;2832;50.864;12.186;2023-02-11T06:58:04;5.80;99.90
5621;DHT22;2832;50.864;12.186;2023-02-11T07:00:32;6.20;99.90
5621;DHT22;2832;50.864;12.186;2023-02-11T07:02:59;6.60;99.90
5621;DHT22;2832;50.864;12.186;2023-02-11T07:05:27;7.00;99.90
5621;DHT22;2832;50.864;12.186;2023-02-11T07:07:56;7.30;99.90
5621;DHT22;2832;50.864;12.186;2023-02-11T07:10:23;7.50;99.90
5621;DHT22;2832;50.864;12.186;2023-02-11T07:12:52;7.70;99.90
5621;DHT22;2832;50.864;12.186;2023-02-11T07:15:23;7.70;99.90
5621;DHT22;2832;50.864;12.186;2023-02-11T07:17:51;7.80;99.90
5621;DHT22;2832;50.864;12.186;2023-02-11T07:20:18;7.90;99.90
5621;DHT22;2832;50.864;12.186;2023-02-11T07:22:46;8.00;99.90
5621;DHT22;2832;50.864;12.186;2023-02-11T07:25:14;8.00;99.90
5621;DHT22;2832;50.864;12.186;2023-02-11T07:27:44;8.00;99.90
5621;DHT22;2832;50.864;12.186;2023-02-11T07:30:12;8.00;99.90
5621;DHT22;2832;50.864;12.186;2023-02-11T07:33:00;7.90;99.90
5621;DHT22;2832;50.864;12.186;2023-02-11T07:35:28;7.70;99.90
5621;DHT22;2832;50.864;12.186;2023-02-11T07:37:59;7.50;99.90
5621;DHT22;2832;50.864;12.186;2023-02-11T07:40:33;7.30;99.90
5621;DHT22;2832;50.864;12.186;2023-02-11T07:43:00;7.10;99.90
5621;DHT22;2832;50.864;12.186;2023-02-11T07:45:28;7.00;99.90
5621;DHT22;2832;50.864;12.186;2023-02-11T07:47:56;6.90;99.90
5621;DHT22;2832;50.864;12.186;2023-02-11T07:50:25;6.70;99.90
5621;DHT22;2832;50.864;12.186;2023-02-11T07:52:57;6.60;99.90
5621;DHT22;2832;50.864;12.186;2023-02-11T07:55:29;6.50;99.90
5621;DHT22;2832;50.864;12.186;2023-02-11T07:57:57;6.50;99.90
5621;DHT22;2832;50.864;12.186;2023-02-11T08:00:25;6.40;99.90
5621;DHT22;2832;50.864;12.186;2023-02-11T08:02:55;6.40;99.90
5621;DHT22;2832;50.864;12.186;2023-02-11T08:05:25;6.40;99.90
5621;DHT22;2832;50.864;12.186;2023-02-11T08:07:53;6.30;99.90
5621;DHT22;2832;50.864;12.186;2023-02-11T08:10:21;6.30;99.90
5621;DHT22;2832;50.864;12.186;2023-02-11T08:12:49;6.30;99.90
5621;DHT22;2832;50.864;12.186;2023-02-11T08:15:18;6.20;99.90
5621;DHT22;2832;50.864;12.186;2023-02-11T08:17:45;6.20;99.90
5621;DHT22;2832;50.864;12.186;2023-02-11T08:20:13;6.20;99.90
5621;DHT22;2832;50.864;12.186;2023-02-11T08:22:42;6.20;99.90
5621;DHT22;2832;50.864;12.186;2023-02-11T08:25:10;6.40;99.90
5621;DHT22;2832;50.864;12.186;2023-02-11T08:27:38;6.60;99.90
5621;DHT22;2832;50.864;12.186;2023-02-11T08:30:07;6.70;99.90
5621;DHT22;2832;50.864;12.186;2023-02-11T08:32:35;6.90;99.90
5621;DHT22;2832;50.864;12.186;2023-02-11T08:35:05;7.10;99.90
5621;DHT22;2832;50.864;12.186;2023-02-11T08:37:34;7.30;99.90
5621;DHT22;2832;50.864;12.186;2023-02-11T08:40:05;7.60;99.90
5621;DHT22;2832;50.864;12.186;2023-02-11T08:42:34;7.80;99.90
5621;DHT22;2832;50.864;12.186;2023-02-11T08:45:02;7.90;99.90
5621;DHT22;2832;50.864;12.186;2023-02-11T08:47:31;8.00;99.90
5621;DHT22;2832;50.864;12.186;2023-02-11T08:50:00;8.20;99.90
5621;DHT22;2832;50.864;12.186;2023-02-11T08:52:27;8.30;99.90
5621;DHT22;2832;50.864;12.186;2023-02-11T08:54:55;8.40;99.90
5621;DHT22;2832;50.864;12.186;2023-02-11T08:57:26;8.50;99.90
5621;DHT22;2832;50.864;12.186;2023-02-11T08:59:54;8.60;99.90
5621;DHT22;2832;50.864;12.186;2023-02-11T09:02:22;8.60;99.90
5621;DHT22;2832;50.864;12.186;2023-02-11T09:04:50;8.30;99.90
5621;DHT22;2832;50.864;12.186;2023-02-11T09:07:17;8.10;99.90
5621;DHT22;2832;50.864;12.186;2023-02-11T09:09:45;7.90;99.90
5621;DHT22;2832;50.864;12.186;2023-02-11T09:12:13;7.70;99.90
5621;DHT22;2832;50.864;12.186;2023-02-11T09:14:43;7.40;99.90
5621;DHT22;2832;50.864;12.186;2023-02-11T09:17:12;7.20;99.90
5621;DHT22;2832;50.864;12.186;2023-02-11T09:19:41;7.10;99.90
5621;DHT22;2832;50.864;12.186;2023-02-11T09:22:13;7.00;99.90
5621;DHT22;2832;50.864;12.186;2023-02-11T09:24:47;6.90;99.90
5621;DHT22;2832;50.864;12.186;2023-02-11T09:27:26;6.90;99.90
5621;DHT22;2832;50.864;12.186;2023-02-11T09:29:56;6.90;99.90
5621;DHT22;2832;50.864;12.186;2023-02-11T09:32:24;6.80;99.90
5621;DHT22;2832;50.864;12.186;2023-02-11T09:34:52;6.70;99.90
5621;DHT22;2832;50.864;12.186;2023-02-11T09:37:20;6.70;99.90
5621;DHT22;2832;50.864;12.186;2023-02-11T09:39:48;6.70;99.90
5621;DHT22;2832;50.864;12.186;2023-02-11T09:42:38;6.70;99.90
5621;DHT22;2832;50.864;12.186;2023-02-11T09:45:14;6.60;99.90
5621;DHT22;2832;50.864;12.186;2023-02-11T09:47:49;6.60;99.90
5621;DHT22;2832;50.864;12.186;2023-02-11T09:50:23;6.60;99.90
5621;DHT22;2832;50.864;12.186;2023-02-11T09:52:57;6.60;99.90
5621;DHT22;2832;50.864;12.186;2023-02-11T09:55:30;6.50;99.90
5621;DHT22;2832;50.864;12.186;2023-02-11T09:58:00;6.60;99.90
5621;DHT22;2832;50.864;12.186;2023-02-11T10:00:36;6.60;99.90
5621;DHT22;2832;50.864;12.186;2023-02-11T10:03:18;6.50;99.90
5621;DHT22;2832;50.864;12.186;2023-02-11T10:06:08;6.40;99.90
5621;DHT22;2832;50.864;12.186;2023-02-11T10:08:42;6.40;99.90
5621;DHT22;2832;50.864;12.186;2023-02-11T10:11:18;6.50;99.90
5621;DHT22;2832;50.864;12.186;2023-02-11T10:13:55;6.50;99.90
5621;DHT22;2832;50.864;12.186;2023-02-11T10:16:39;6.50;99.90
5621;DHT22;2832;50.864;12.186;2023-02-11T10:19:22;6.40;99.90
5621;DHT22;2832;50.864;12.186;2023-02-11T10:22:05;6.40;99.90
5621;DHT22;2832;50.864;12.186;2023-02-11T10:24:35;6.40;99.90
5621;DHT22;2832;50.864;12.186;2023-02-11T10:27:13;6.40;99.90
5621;DHT22;2832;50.864;12.186;2023-02-11T10:29:47;6.40;99.90
5621;DHT22;2832;50.864;12.186;2023-02-11T10:32:26;6.30;99.90
5621;DHT22;2832;50.864;12.186;2023-02-11T10:35:01;6.30;99.90
5621;DHT22;2832;50.864;12.186;2023-02-11T10:37:30;6.30;99.90
5621;DHT22;2832;50.864;12.186;2023-02-11T10:39:58;6.30;99.90
5621;DHT22;2832;50.864;12.186;2023-02-11T10:42:26;6.30;99.90
5621;DHT22;2832;50.864;12.186;2023-02-11T10:44:59;6.30;99.90
5621;DHT22;2832;50.864;12.186;2023-02-11T10:47:35;6.30;99.90
5621;DHT22;2832;50.864;12.186;2023-02-11T10:50:19;6.30;99.90
5621;DHT22;2832;50.864;12.186;2023-02-11T10:52:47;6.30;99.90
5621;DHT22;2832;50.864;12.186;2023-02-11T10:55:17;6.30;99.90
5621;DHT22;2832;50.864;12.186;2023-02-11T10:57:54;6.30;99.90
5621;DHT22;2832;50.864;12.186;2023-02-11T11:00:31;6.30;99.90
5621;DHT22;2832;50.864;12.186;2023-02-11T11:03:06;6.20;99.90
5621;DHT22;2832;50.864;12.186;2023-02-11T11:05:46;6.20;99.90
5621;DHT22;2832;50.864;12.186;2023-02-11T11:08:19;6.30;99.90
5621;DHT22;2832;50.864;12.186;2023-02-11T11:11:00;6.20;99.90
5621;DHT22;2832;50.864;12.186;2023-02-11T11:13:32;6.20;99.90
5621;DHT22;2832;50.864;12.186;2023-02-11T11:16:21;6.20;99.90
5621;DHT22;2832;50.864;12.186;2023-02-11T11:21:42;6.20;99.90
5621;DHT22;2832;50.864;12.186;2023-02-11T11:24:16;6.10;99.90
5621;DHT22;2832;50.864;12.186;2023-02-11T11:26:46;6.20;99.90
5621;DHT22;2832;50.864;12.186;2023-02-11T11:29:17;6.20;99.90
5621;DHT22;2832;50.864;12.186;2023-02-11T11:31:48;6.20;99.90
5621;DHT22;2832;50.864;12.186;2023-02-11T11:34:25;6.20;99.90
5621;DHT22;2832;50.864;12.186;2023-02-11T11:36:54;6.20;99.90
5621;DHT22;2832;50.864;12.186;2023-02-11T11:39:28;6.20;99.90
5621;DHT22;2832;50.864;12.186;2023-02-11T11:42:01;6.30;99.90
5621;DHT22;2832;50.864;12.186;2023-02-11T11:44:33;6.30;99.90
5621;DHT22;2832;50.864;12.186;2023-02-11T11:47:15;6.20;99.90
5621;DHT22;2832;50.864;12.186;2023-02-11T11:49:50;6.20;99.90
5621;DHT22;2832;50.864;12.186;2023-02-11T11:52:32;6.10;99.90
5621;DHT22;2832;50.864;12.186;2023-02-11T11:55:05;6.10;99.90
5621;DHT22;2832;50.864;12.186;2023-02-11T11:57:40;6.20;99.90
5621;DHT22;2832;50.864;12.186;2023-02-11T12:00:18;6.10;99.90
5621;DHT22;2832;50.864;12.186;2023-02-11T12:03:09;6.30;99.90
5621;DHT22;2832;50.864;12.186;2023-02-11T12:05:53;6.20;99.90
5621;DHT22;2832;50.864;12.186;2023-02-11T12:08:36;6.30;99.90
5621;DHT22;2832;50.864;12.186;2023-02-11T12:11:12;6.30;99.90
5621;DHT22;2832;50.864;12.186;2023-02-11T12:14:04;6.30;99.90
5621;DHT22;2832;50.864;12.186;2023-02-11T12:17:10;6.30;99.90
5621;DHT22;2832;50.864;12.186;2023-02-11T12:20:08;6.30;99.90
5621;DHT22;2832;50.864;12.186;2023-02-11T12:22:55;6.30;99.90
5621;DHT22;2832;50.864;12.186;2023-02-11T12:25:26;6.30;99.90
5621;DHT22;2832;50.864;12.186;2023-02-11T12:28:17;6.30;99.90
5621;DHT22;2832;50.864;12.186;2023-02-11T12:30:55;6.20;99.90
5621;DHT22;2832;50.864;12.186;2023-02-11T12:33:37;6.30;99.90
5621;DHT22;2832;50.864;12.186;2023-02-11T12:36:16;6.20;99.90
5621;DHT22;2832;50.864;12.186;2023-02-11T12:38:59;6.20;99.90
5621;DHT22;2832;50.864;12.186;2023-02-11T12:41:52;6.20;99.90
5621;DHT22;2832;50.864;12.186;2023-02-11T12:44:55;6.20;99.90
5621;DHT22;2832;50.864;12.186;2023-02-11T12:47:31;6.30;99.90
5621;DHT22;2832;50.864;12.186;2023-02-11T12:50:10;6.20;99.90
5621;DHT22;2832;50.864;12.186;2023-02-11T12:55:36;6.30;99.90
5621;DHT22;2832;50.864;12.186;2023-02-11T12:58:12;6.40;99.90
5621;DHT22;2832;50.864;12.186;2023-02-11T13:00:50;6.30;99.90
5621;DHT22;2832;50.864;12.186;2023-02-11T13:03:23;6.40;99.90
5621;DHT22;2832;50.864;12.186;2023-02-11T13:05:54;6.40;99.90
5621;DHT22;2832;50.864;12.186;2023-02-11T13:08:28;6.40;99.90
5621;DHT22;2832;50.864;12.186;2023-02-11T13:11:01;6.30;99.90
5621;DHT22;2832;50.864;12.186;2023-02-11T13:13:33;6.40;99.90
5621;DHT22;2832;50.864;12.186;2023-02-11T13:16:06;6.40;99.90
5621;DHT22;2832;50.864;12.186;2023-02-11T13:18:49;6.30;99.90
5621;DHT22;2832;50.864;12.186;2023-02-11T13:21:41;6.30;99.90
5621;DHT22;2832;50.864;12.186;2023-02-11T13:24:19;6.30;99.90
5621;DHT22;2832;50.864;12.186;2023-02-11T13:26:59;6.30;99.90
5621;DHT22;2832;50.864;12.186;2023-02-11T13:29:39;6.30;99.90
5621;DHT22;2832;50.864;12.186;2023-02-11T13:32:11;6.40;99.90
5621;DHT22;2832;50.864;12.186;2023-02-11T13:34:58;6.40;99.90
5621;DHT22;2832;50.864;12.186;2023-02-11T13:37:30;6.40;99.90
5621;DHT22;2832;50.864;12.186;2023-02-11T13:40:00;6.40;99.90
5621;DHT22;2832;50.864;12.186;2023-02-11T13:42:31;6.30;99.90
5621;DHT22;2832;50.864;12.186;2023-02-11T13:45:01;6.40;99.90
5621;DHT22;2832;50.864;12.186;2023-02-11T13:47:32;6.40;99.90
5621;DHT22;2832;50.864;12.186;2023-02-11T13:50:02;6.50;99.90
5621;DHT22;2832;50.864;12.186;2023-02-11T13:52:34;6.40;99.90
5621;DHT22;2832;50.864;12.186;2023-02-11T13:55:13;6.40;99.90
5621;DHT22;2832;50.864;12.186;2023-02-11T13:58:15;6.40;99.90
5621;DHT22;2832;50.864;12.186;2023-02-11T14:00:47;6.40;99.90
5621;DHT22;2832;50.864;12.186;2023-02-11T14:03:24;6.40;99.90
5621;DHT22;2832;50.864;12.186;2023-02-11T14:06:13;6.30;99.90
5621;DHT22;2832;50.864;12.186;2023-02-11T14:09:33;6.40;99.90
5621;DHT22;2832;50.864;12.186;2023-02-11T14:12:29;6.40;99.90
5621;DHT22;2832;50.864;12.186;2023-02-11T14:15:00;6.40;99.90
5621;DHT22;2832;50.864;12.186;2023-02-11T14:17:31;6.50;99.90
5621;DHT22;2832;50.864;12.186;2023-02-11T14:20:01;6.60;99.90
5621;DHT22;2832;50.864;12.186;2023-02-11T14:22:38;6.60;99.90
5621;DHT22;2832;50.864;12.186;2023-02-11T14:25:17;6.60;99.90
5621;DHT22;2832;50.864;12.186;2023-02-11T14:27:50;6.50;99.90
5621;DHT22;2832;50.864;12.186;2023-02-11T14:39:33;6.50;99.90
5621;DHT22;2832;50.864;12.186;2023-02-11T14:42:14;6.50;99.90
5621;DHT22;2832;50.864;12.186;2023-02-11T14:44:45;6.60;99.90
5621;DHT22;2832;50.864;12.186;2023-02-11T14:47:17;6.50;99.90
5621;DHT22;2832;50.864;12.186;2023-02-11T14:49:48;6.50;99.90
5621;DHT22;2832;50.864;12.186;2023-02-11T14:52:25;6.60;99.90
5621;DHT22;2832;50.864;12.186;2023-02-11T14:55:05;6.70;99.90
5621;DHT22;2832;50.864;12.186;2023-02-11T14:57:42;6.70;99.90
5621;DHT22;2832;50.864;12.186;2023-02-11T15:00:17;6.80;99.90
5621;DHT22;2832;50.864;12.186;2023-02-11T15:02:49;6.80;99.90
5621;DHT22;2832;50.864;12.186;2023-02-11T15:05:21;6.70;99.90
5621;DHT22;2832;50.864;12.186;2023-02-11T15:07:54;6.70;99.90
5621;DHT22;2832;50.864;12.186;2023-02-11T15:10:27;6.70;99.90
5621;DHT22;2832;50.864;12.186;2023-02-11T15:12:57;6.80;99.90
5621;DHT22;2832;50.864;12.186;2023-02-11T15:15:26;6.80;99.90
5621;DHT22;2832;50.864;12.186;2023-02-11T15:17:56;6.70;99.90
5621;DHT22;2832;50.864;12.186;2023-02-11T15:20:26;6.70;99.90
5621;DHT22;2832;50.864;12.186;2023-02-11T15:22:59;6.60;99.90
5621;DHT22;2832;50.864;12.186;2023-02-11T15:25:28;6.80;99.90
5621;DHT22;2832;50.864;12.186;2023-02-11T15:27:57;6.80;99.90
5621;DHT22;2832;50.864;12.186;2023-02-11T15:30:28;6.70;99.90
5621;DHT22;2832;50.864;12.186;2023-02-11T15:33:02;6.80;99.90
5621;DHT22;2832;50.864;12.186;2023-02-11T15:35:37;6.70;99.90
5621;DHT22;2832;50.864;12.186;2023-02-11T15:38:10;6.80;99.90
5621;DHT22;2832;50.864;12.186;2023-02-11T15:40:39;6.80;99.90
5621;DHT22;2832;50.864;12.186;2023-02-11T15:43:08;6.80;99.90
5621;DHT22;2832;50.864;12.186;2023-02-11T15:45:38;6.90;99.90
5621;DHT22;2832;50.864;12.186;2023-02-11T15:48:11;6.90;99.90
5621;DHT22;2832;50.864;12.186;2023-02-11T15:50:41;6.90;99.90
5621;DHT22;2832;50.864;12.186;2023-02-11T15:53:21;6.90;99.90
5621;DHT22;2832;50.864;12.186;2023-02-11T15:55:51;7.00;99.90
5621;DHT22;2832;50.864;12.186;2023-02-11T15:58:21;7.00;99.90
5621;DHT22;2832;50.864;12.186;2023-02-11T16:00:51;7.00;99.90
5621;DHT22;2832;50.864;12.186;2023-02-11T16:03:26;7.00;99.90
5621;DHT22;2832;50.864;12.186;2023-02-11T16:06:16;7.00;99.90
5621;DHT22;2832;50.864;12.186;2023-02-11T16:08:58;7.00;99.90
5621;DHT22;2832;50.864;12.186;2023-02-11T16:11:28;7.00;99.90
5621;DHT22;2832;50.864;12.186;2023-02-11T16:13:57;7.00;99.90
5621;DHT22;2832;50.864;12.186;2023-02-11T16:16:27;7.00;99.90
5621;DHT22;2832;50.864;12.186;2023-02-11T16:18:57;7.00;99.90
5621;DHT22;2832;50.864;12.186;2023-02-11T16:21:29;7.00;99.90
5621;DHT22;2832;50.864;12.186;2023-02-11T16:24:06;7.00;99.90
5621;DHT22;2832;50.864;12.186;2023-02-11T16:26:37;7.00;99.90
5621;DHT22;2832;50.864;12.186;2023-02-11T16:29:11;7.10;99.90
5621;DHT22;2832;50.864;12.186;2023-02-11T16:31:42;7.10;99.90
5621;DHT22;2832;50.864;12.186;2023-02-11T16:34:24;7.10;99.90
5621;DHT22;2832;50.864;12.186;2023-02-11T16:36:53;7.10;99.90
5621;DHT22;2832;50.864;12.186;2023-02-11T16:39:22;7.20;99.90
5621;DHT22;2832;50.864;12.186;2023-02-11T16:41:50;7.10;99.90
5621;DHT22;2832;50.864;12.186;2023-02-11T16:44:18;7.10;99.90
5621;DHT22;2832;50.864;12.186;2023-02-11T16:46:46;7.10;99.90
5621;DHT22;2832;50.864;12.186;2023-02-11T16:49:24;7.10;99.90
5621;DHT22;2832;50.864;12.186;2023-02-11T16:51:54;7.10;99.90
5621;DHT22;2832;50.864;12.186;2023-02-11T16:54:24;7.20;99.90
5621;DHT22;2832;50.864;12.186;2023-02-11T16:56:52;7.20;99.90
5621;DHT22;2832;50.864;12.186;2023-02-11T16:59:20;7.20;99.90
5621;DHT22;2832;50.864;12.186;2023-02-11T17:01:49;7.20;99.90